Аэропорт: Талаги. Архангельск

ICAO: ULAA

METAR:
2020-06-02 06:30:00
ULAA 020630Z VRB01MPS 9999 SCT033 11/01 Q1025 R08/CLRD68 NOSIG RMK QFE767/1023
METAR:
2020-06-02 06:00:00
TAF ULAA 020600Z 0206/0306 VRB01MPS 9999 SCT020 TEMPO 0206/0209 26003MPS BKN020 TEMPO 0209/0214 32003G08MPS -SHRA BKN019CB BECMG 0214/0216 36003MPS SCT020CB